sensor_id;sensor_type;location;lat;lon;timestamp;P1;durP1;ratioP1;P2;durP2;ratioP2
10365;SDS011;5229;41.820;23.490;2023-03-14T00:01:57;1.30;;;1.20;;
10365;SDS011;5229;41.820;23.490;2023-03-14T00:04:23;1.37;;;1.17;;
10365;SDS011;5229;41.820;23.490;2023-03-14T00:06:50;1.30;;;1.17;;
10365;SDS011;5229;41.820;23.490;2023-03-14T00:09:17;1.20;;;1.10;;
10365;SDS011;5229;41.820;23.490;2023-03-14T00:11:44;1.10;;;1.00;;
10365;SDS011;5229;41.820;23.490;2023-03-14T00:14:12;1.33;;;1.13;;
10365;SDS011;5229;41.820;23.490;2023-03-14T00:16:40;1.40;;;1.20;;
10365;SDS011;5229;41.820;23.490;2023-03-14T00:19:07;1.20;;;1.10;;
10365;SDS011;5229;41.820;23.490;2023-03-14T00:21:34;1.33;;;1.00;;
10365;SDS011;5229;41.820;23.490;2023-03-14T00:24:01;1.40;;;1.10;;
10365;SDS011;5229;41.820;23.490;2023-03-14T00:26:27;1.10;;;1.00;;
10365;SDS011;5229;41.820;23.490;2023-03-14T00:28:54;1.60;;;1.10;;
10365;SDS011;5229;41.820;23.490;2023-03-14T00:31:23;1.40;;;1.03;;
10365;SDS011;5229;41.820;23.490;2023-03-14T00:33:50;1.17;;;1.07;;
10365;SDS011;5229;41.820;23.490;2023-03-14T00:36:19;1.57;;;1.47;;
10365;SDS011;5229;41.820;23.490;2023-03-14T00:38:47;1.60;;;1.20;;
10365;SDS011;5229;41.820;23.490;2023-03-14T00:41:16;1.40;;;1.30;;
10365;SDS011;5229;41.820;23.490;2023-03-14T00:43:44;1.43;;;1.30;;
10365;SDS011;5229;41.820;23.490;2023-03-14T00:46:11;3.60;;;1.77;;
10365;SDS011;5229;41.820;23.490;2023-03-14T00:48:39;2.00;;;1.20;;
10365;SDS011;5229;41.820;23.490;2023-03-14T00:51:06;1.53;;;1.23;;
10365;SDS011;5229;41.820;23.490;2023-03-14T00:53:35;1.47;;;0.90;;
10365;SDS011;5229;41.820;23.490;2023-03-14T00:56:03;0.80;;;0.70;;
10365;SDS011;5229;41.820;23.490;2023-03-14T00:58:31;1.00;;;1.00;;
10365;SDS011;5229;41.820;23.490;2023-03-14T01:00:58;0.83;;;0.83;;
10365;SDS011;5229;41.820;23.490;2023-03-14T01:03:24;1.20;;;0.90;;
10365;SDS011;5229;41.820;23.490;2023-03-14T01:05:53;1.30;;;1.17;;
10365;SDS011;5229;41.820;23.490;2023-03-14T01:08:19;1.10;;;0.90;;
10365;SDS011;5229;41.820;23.490;2023-03-14T01:10:46;1.30;;;1.20;;
10365;SDS011;5229;41.820;23.490;2023-03-14T01:13:13;1.47;;;1.13;;
10365;SDS011;5229;41.820;23.490;2023-03-14T01:15:40;1.27;;;1.17;;
10365;SDS011;5229;41.820;23.490;2023-03-14T01:18:06;1.10;;;0.93;;
10365;SDS011;5229;41.820;23.490;2023-03-14T01:20:33;1.37;;;1.10;;
10365;SDS011;5229;41.820;23.490;2023-03-14T01:23:01;1.40;;;1.30;;
10365;SDS011;5229;41.820;23.490;2023-03-14T01:25:28;2.17;;;1.60;;
10365;SDS011;5229;41.820;23.490;2023-03-14T01:27:55;1.77;;;1.40;;
10365;SDS011;5229;41.820;23.490;2023-03-14T01:30:22;1.20;;;1.13;;
10365;SDS011;5229;41.820;23.490;2023-03-14T01:32:48;1.53;;;1.10;;
10365;SDS011;5229;41.820;23.490;2023-03-14T01:35:15;1.33;;;1.17;;
10365;SDS011;5229;41.820;23.490;2023-03-14T01:37:42;1.30;;;1.20;;
10365;SDS011;5229;41.820;23.490;2023-03-14T01:40:11;1.77;;;1.60;;
10365;SDS011;5229;41.820;23.490;2023-03-14T01:42:44;1.27;;;1.17;;
10365;SDS011;5229;41.820;23.490;2023-03-14T01:48:11;2.73;;;1.27;;
10365;SDS011;5229;41.820;23.490;2023-03-14T01:50:38;2.23;;;1.60;;
10365;SDS011;5229;41.820;23.490;2023-03-14T01:53:06;3.33;;;1.20;;
10365;SDS011;5229;41.820;23.490;2023-03-14T01:55:34;1.57;;;1.30;;
10365;SDS011;5229;41.820;23.490;2023-03-14T01:58:03;1.67;;;1.30;;
10365;SDS011;5229;41.820;23.490;2023-03-14T02:00:30;0.90;;;0.80;;
10365;SDS011;5229;41.820;23.490;2023-03-14T02:02:58;1.43;;;1.23;;
10365;SDS011;5229;41.820;23.490;2023-03-14T02:05:29;1.03;;;0.93;;
10365;SDS011;5229;41.820;23.490;2023-03-14T02:07:59;1.30;;;1.20;;
10365;SDS011;5229;41.820;23.490;2023-03-14T02:10:28;1.47;;;1.33;;
10365;SDS011;5229;41.820;23.490;2023-03-14T02:12:59;3.60;;;1.13;;
10365;SDS011;5229;41.820;23.490;2023-03-14T02:15:28;0.97;;;0.73;;
10365;SDS011;5229;41.820;23.490;2023-03-14T02:17:56;1.23;;;0.97;;
10365;SDS011;5229;41.820;23.490;2023-03-14T02:20:27;0.80;;;0.80;;
10365;SDS011;5229;41.820;23.490;2023-03-14T02:23:00;1.80;;;0.93;;
10365;SDS011;5229;41.820;23.490;2023-03-14T02:25:28;1.30;;;1.00;;
10365;SDS011;5229;41.820;23.490;2023-03-14T02:28:07;1.20;;;1.00;;
10365;SDS011;5229;41.820;23.490;2023-03-14T02:30:34;1.60;;;0.97;;
10365;SDS011;5229;41.820;23.490;2023-03-14T02:33:03;1.00;;;1.00;;
10365;SDS011;5229;41.820;23.490;2023-03-14T02:35:32;1.23;;;1.00;;
10365;SDS011;5229;41.820;23.490;2023-03-14T02:38:07;1.40;;;1.30;;
10365;SDS011;5229;41.820;23.490;2023-03-14T02:40:41;3.90;;;2.93;;
10365;SDS011;5229;41.820;23.490;2023-03-14T02:43:09;1.00;;;1.00;;
10365;SDS011;5229;41.820;23.490;2023-03-14T02:45:38;1.30;;;1.20;;
10365;SDS011;5229;41.820;23.490;2023-03-14T02:48:09;0.87;;;0.87;;
10365;SDS011;5229;41.820;23.490;2023-03-14T02:50:39;0.87;;;0.80;;
10365;SDS011;5229;41.820;23.490;2023-03-14T02:53:07;1.03;;;0.93;;
10365;SDS011;5229;41.820;23.490;2023-03-14T02:55:34;1.57;;;1.47;;
10365;SDS011;5229;41.820;23.490;2023-03-14T02:58:01;1.03;;;1.00;;
10365;SDS011;5229;41.820;23.490;2023-03-14T03:00:29;0.93;;;0.90;;
10365;SDS011;5229;41.820;23.490;2023-03-14T03:02:56;0.80;;;0.80;;
10365;SDS011;5229;41.820;23.490;2023-03-14T03:05:23;0.77;;;0.77;;
10365;SDS011;5229;41.820;23.490;2023-03-14T03:07:50;0.87;;;0.77;;
10365;SDS011;5229;41.820;23.490;2023-03-14T03:10:17;0.97;;;0.90;;
10365;SDS011;5229;41.820;23.490;2023-03-14T03:12:44;1.37;;;1.10;;
10365;SDS011;5229;41.820;23.490;2023-03-14T03:15:11;2.57;;;1.40;;
10365;SDS011;5229;41.820;23.490;2023-03-14T03:17:39;1.77;;;1.57;;
10365;SDS011;5229;41.820;23.490;2023-03-14T03:20:06;1.90;;;1.70;;
10365;SDS011;5229;41.820;23.490;2023-03-14T03:22:34;1.17;;;1.07;;
10365;SDS011;5229;41.820;23.490;2023-03-14T03:25:01;1.40;;;1.30;;
10365;SDS011;5229;41.820;23.490;2023-03-14T03:27:29;1.33;;;1.00;;
10365;SDS011;5229;41.820;23.490;2023-03-14T03:29:56;0.90;;;0.90;;
10365;SDS011;5229;41.820;23.490;2023-03-14T03:32:22;3.43;;;1.83;;
10365;SDS011;5229;41.820;23.490;2023-03-14T03:34:51;1.10;;;1.00;;
10365;SDS011;5229;41.820;23.490;2023-03-14T03:37:18;1.83;;;1.10;;
10365;SDS011;5229;41.820;23.490;2023-03-14T03:39:45;1.00;;;0.90;;
10365;SDS011;5229;41.820;23.490;2023-03-14T03:42:11;1.20;;;1.10;;
10365;SDS011;5229;41.820;23.490;2023-03-14T03:44:38;1.10;;;1.00;;
10365;SDS011;5229;41.820;23.490;2023-03-14T03:47:05;1.23;;;1.10;;
10365;SDS011;5229;41.820;23.490;2023-03-14T03:49:32;1.70;;;1.50;;
10365;SDS011;5229;41.820;23.490;2023-03-14T03:52:00;1.47;;;1.37;;
10365;SDS011;5229;41.820;23.490;2023-03-14T03:54:27;1.80;;;1.10;;
10365;SDS011;5229;41.820;23.490;2023-03-14T03:56:55;1.60;;;1.20;;
10365;SDS011;5229;41.820;23.490;2023-03-14T03:59:21;0.87;;;0.87;;
10365;SDS011;5229;41.820;23.490;2023-03-14T04:01:48;2.30;;;1.37;;
10365;SDS011;5229;41.820;23.490;2023-03-14T04:04:15;1.50;;;1.37;;
10365;SDS011;5229;41.820;23.490;2023-03-14T04:06:42;1.60;;;1.47;;
10365;SDS011;5229;41.820;23.490;2023-03-14T04:09:10;1.83;;;1.33;;
10365;SDS011;5229;41.820;23.490;2023-03-14T04:11:38;1.30;;;1.20;;
10365;SDS011;5229;41.820;23.490;2023-03-14T04:14:04;1.43;;;1.30;;
10365;SDS011;5229;41.820;23.490;2023-03-14T04:16:31;1.40;;;1.30;;
10365;SDS011;5229;41.820;23.490;2023-03-14T04:18:58;1.10;;;1.00;;
10365;SDS011;5229;41.820;23.490;2023-03-14T04:21:26;1.67;;;1.40;;
10365;SDS011;5229;41.820;23.490;2023-03-14T04:23:53;1.30;;;1.20;;
10365;SDS011;5229;41.820;23.490;2023-03-14T04:26:21;3.43;;;1.30;;
10365;SDS011;5229;41.820;23.490;2023-03-14T04:28:48;1.00;;;1.00;;
10365;SDS011;5229;41.820;23.490;2023-03-14T04:31:15;2.40;;;1.10;;
10365;SDS011;5229;41.820;23.490;2023-03-14T04:33:44;1.00;;;0.90;;
10365;SDS011;5229;41.820;23.490;2023-03-14T04:36:11;1.20;;;1.10;;
10365;SDS011;5229;41.820;23.490;2023-03-14T04:38:38;1.30;;;1.10;;
10365;SDS011;5229;41.820;23.490;2023-03-14T04:41:05;0.90;;;0.90;;
10365;SDS011;5229;41.820;23.490;2023-03-14T04:46:37;0.90;;;0.70;;
10365;SDS011;5229;41.820;23.490;2023-03-14T04:49:04;0.70;;;0.70;;
10365;SDS011;5229;41.820;23.490;2023-03-14T04:51:30;0.70;;;0.70;;
10365;SDS011;5229;41.820;23.490;2023-03-14T04:53:57;1.00;;;0.90;;
10365;SDS011;5229;41.820;23.490;2023-03-14T04:56:24;0.93;;;0.93;;
10365;SDS011;5229;41.820;23.490;2023-03-14T04:58:52;0.97;;;0.70;;
10365;SDS011;5229;41.820;23.490;2023-03-14T05:01:20;0.73;;;0.73;;
10365;SDS011;5229;41.820;23.490;2023-03-14T05:03:48;1.80;;;1.13;;
10365;SDS011;5229;41.820;23.490;2023-03-14T05:06:15;1.90;;;1.40;;
10365;SDS011;5229;41.820;23.490;2023-03-14T05:08:42;1.33;;;1.10;;
10365;SDS011;5229;41.820;23.490;2023-03-14T05:11:09;1.20;;;1.10;;
10365;SDS011;5229;41.820;23.490;2023-03-14T05:13:36;0.90;;;0.90;;
10365;SDS011;5229;41.820;23.490;2023-03-14T05:16:04;0.90;;;0.90;;
10365;SDS011;5229;41.820;23.490;2023-03-14T05:18:33;0.93;;;0.93;;
10365;SDS011;5229;41.820;23.490;2023-03-14T05:21:00;0.93;;;0.90;;
10365;SDS011;5229;41.820;23.490;2023-03-14T05:23:28;1.07;;;0.60;;
10365;SDS011;5229;41.820;23.490;2023-03-14T05:25:55;1.40;;;0.80;;
10365;SDS011;5229;41.820;23.490;2023-03-14T05:28:22;1.23;;;0.93;;
10365;SDS011;5229;41.820;23.490;2023-03-14T05:30:49;1.53;;;1.20;;
10365;SDS011;5229;41.820;23.490;2023-03-14T05:33:16;1.37;;;1.20;;
10365;SDS011;5229;41.820;23.490;2023-03-14T05:35:44;0.93;;;0.93;;
10365;SDS011;5229;41.820;23.490;2023-03-14T05:38:10;1.70;;;1.30;;
10365;SDS011;5229;41.820;23.490;2023-03-14T05:40:37;1.27;;;1.17;;
10365;SDS011;5229;41.820;23.490;2023-03-14T05:43:04;2.47;;;1.37;;
10365;SDS011;5229;41.820;23.490;2023-03-14T05:45:33;1.20;;;1.10;;
10365;SDS011;5229;41.820;23.490;2023-03-14T05:47:59;1.50;;;1.33;;
10365;SDS011;5229;41.820;23.490;2023-03-14T05:50:26;1.40;;;1.30;;
10365;SDS011;5229;41.820;23.490;2023-03-14T05:52:54;1.07;;;1.07;;
10365;SDS011;5229;41.820;23.490;2023-03-14T05:55:21;2.17;;;1.50;;
10365;SDS011;5229;41.820;23.490;2023-03-14T05:57:48;2.03;;;1.60;;
10365;SDS011;5229;41.820;23.490;2023-03-14T06:00:15;1.53;;;1.30;;
10365;SDS011;5229;41.820;23.490;2023-03-14T06:02:42;1.70;;;1.50;;
10365;SDS011;5229;41.820;23.490;2023-03-14T06:05:09;3.00;;;1.50;;
10365;SDS011;5229;41.820;23.490;2023-03-14T06:07:36;1.57;;;1.23;;
10365;SDS011;5229;41.820;23.490;2023-03-14T06:10:05;1.57;;;1.30;;
10365;SDS011;5229;41.820;23.490;2023-03-14T06:12:32;1.60;;;1.10;;
10365;SDS011;5229;41.820;23.490;2023-03-14T06:14:59;1.50;;;1.40;;
10365;SDS011;5229;41.820;23.490;2023-03-14T06:17:26;1.67;;;1.50;;
10365;SDS011;5229;41.820;23.490;2023-03-14T06:19:52;2.17;;;1.67;;
10365;SDS011;5229;41.820;23.490;2023-03-14T06:22:19;1.67;;;1.57;;
10365;SDS011;5229;41.820;23.490;2023-03-14T06:24:46;2.63;;;2.33;;
10365;SDS011;5229;41.820;23.490;2023-03-14T06:27:14;1.70;;;1.60;;
10365;SDS011;5229;41.820;23.490;2023-03-14T06:29:41;2.97;;;2.30;;
10365;SDS011;5229;41.820;23.490;2023-03-14T06:32:08;3.00;;;2.60;;
10365;SDS011;5229;41.820;23.490;2023-03-14T06:34:35;3.17;;;2.87;;
10365;SDS011;5229;41.820;23.490;2023-03-14T06:37:03;4.07;;;3.50;;
10365;SDS011;5229;41.820;23.490;2023-03-14T06:39:30;3.60;;;3.20;;
10365;SDS011;5229;41.820;23.490;2023-03-14T06:41:57;4.00;;;3.60;;
10365;SDS011;5229;41.820;23.490;2023-03-14T06:44:25;5.30;;;3.70;;
10365;SDS011;5229;41.820;23.490;2023-03-14T06:46:52;5.53;;;3.87;;
10365;SDS011;5229;41.820;23.490;2023-03-14T06:49:19;5.33;;;4.73;;
10365;SDS011;5229;41.820;23.490;2023-03-14T06:51:45;6.20;;;5.23;;
10365;SDS011;5229;41.820;23.490;2023-03-14T06:54:12;8.00;;;5.80;;
10365;SDS011;5229;41.820;23.490;2023-03-14T06:56:39;7.43;;;5.77;;
10365;SDS011;5229;41.820;23.490;2023-03-14T06:59:06;5.93;;;5.33;;
10365;SDS011;5229;41.820;23.490;2023-03-14T07:01:34;6.60;;;5.90;;
10365;SDS011;5229;41.820;23.490;2023-03-14T07:04:01;6.57;;;5.88;;
10365;SDS011;5229;41.820;23.490;2023-03-14T07:06:27;5.90;;;5.35;;
10365;SDS011;5229;41.820;23.490;2023-03-14T07:08:55;5.35;;;4.82;;
10365;SDS011;5229;41.820;23.490;2023-03-14T07:11:22;5.57;;;4.50;;
10365;SDS011;5229;41.820;23.490;2023-03-14T07:13:49;6.22;;;5.45;;
10365;SDS011;5229;41.820;23.490;2023-03-14T07:16:16;6.55;;;5.50;;
10365;SDS011;5229;41.820;23.490;2023-03-14T07:18:44;6.00;;;5.43;;
10365;SDS011;5229;41.820;23.490;2023-03-14T07:21:11;5.85;;;5.25;;
10365;SDS011;5229;41.820;23.490;2023-03-14T07:23:38;5.38;;;4.80;;
10365;SDS011;5229;41.820;23.490;2023-03-14T07:26:06;5.57;;;5.07;;
10365;SDS011;5229;41.820;23.490;2023-03-14T07:28:33;5.15;;;4.65;;
10365;SDS011;5229;41.820;23.490;2023-03-14T07:31:00;5.85;;;5.22;;
10365;SDS011;5229;41.820;23.490;2023-03-14T07:33:26;8.13;;;7.07;;
10365;SDS011;5229;41.820;23.490;2023-03-14T07:35:55;6.57;;;5.78;;
10365;SDS011;5229;41.820;23.490;2023-03-14T07:38:21;6.05;;;5.45;;
10365;SDS011;5229;41.820;23.490;2023-03-14T07:40:48;6.85;;;6.07;;
10365;SDS011;5229;41.820;23.490;2023-03-14T07:43:15;8.57;;;5.60;;
10365;SDS011;5229;41.820;23.490;2023-03-14T07:45:44;5.85;;;5.25;;
10365;SDS011;5229;41.820;23.490;2023-03-14T07:48:12;7.65;;;5.47;;
10365;SDS011;5229;41.820;23.490;2023-03-14T07:50:38;6.25;;;5.18;;
10365;SDS011;5229;41.820;23.490;2023-03-14T07:53:06;6.18;;;4.30;;
10365;SDS011;5229;41.820;23.490;2023-03-14T07:55:33;6.35;;;4.75;;
10365;SDS011;5229;41.820;23.490;2023-03-14T07:58:00;3.83;;;3.53;;
10365;SDS011;5229;41.820;23.490;2023-03-14T08:00:27;4.85;;;4.32;;
10365;SDS011;5229;41.820;23.490;2023-03-14T08:02:54;3.05;;;2.67;;
10365;SDS011;5229;41.820;23.490;2023-03-14T08:05:21;4.40;;;3.22;;
10365;SDS011;5229;41.820;23.490;2023-03-14T08:07:48;4.13;;;3.65;;
10365;SDS011;5229;41.820;23.490;2023-03-14T08:10:16;3.78;;;3.38;;
10365;SDS011;5229;41.820;23.490;2023-03-14T08:12:47;3.95;;;3.40;;
10365;SDS011;5229;41.820;23.490;2023-03-14T08:15:14;5.30;;;3.92;;
10365;SDS011;5229;41.820;23.490;2023-03-14T08:17:41;4.05;;;3.70;;
10365;SDS011;5229;41.820;23.490;2023-03-14T08:20:08;3.80;;;3.50;;
10365;SDS011;5229;41.820;23.490;2023-03-14T08:22:37;4.28;;;3.88;;
10365;SDS011;5229;41.820;23.490;2023-03-14T08:25:04;4.18;;;3.78;;
10365;SDS011;5229;41.820;23.490;2023-03-14T08:27:33;8.70;;;7.70;;
10365;SDS011;5229;41.820;23.490;2023-03-14T08:30:00;7.70;;;6.88;;
10365;SDS011;5229;41.820;23.490;2023-03-14T08:32:27;8.38;;;7.57;;
10365;SDS011;5229;41.820;23.490;2023-03-14T08:34:55;7.35;;;5.60;;
10365;SDS011;5229;41.820;23.490;2023-03-14T08:37:22;7.28;;;6.57;;
10365;SDS011;5229;41.820;23.490;2023-03-14T08:39:50;7.65;;;7.00;;
10365;SDS011;5229;41.820;23.490;2023-03-14T08:42:17;9.32;;;7.10;;
10365;SDS011;5229;41.820;23.490;2023-03-14T08:44:45;5.97;;;5.38;;
10365;SDS011;5229;41.820;23.490;2023-03-14T08:47:12;6.07;;;5.53;;
10365;SDS011;5229;41.820;23.490;2023-03-14T08:49:39;6.28;;;5.78;;
10365;SDS011;5229;41.820;23.490;2023-03-14T08:52:06;8.65;;;7.03;;
10365;SDS011;5229;41.820;23.490;2023-03-14T08:54:33;9.32;;;7.93;;
10365;SDS011;5229;41.820;23.490;2023-03-14T08:56:59;9.27;;;8.30;;
10365;SDS011;5229;41.820;23.490;2023-03-14T08:59:26;8.30;;;7.35;;
10365;SDS011;5229;41.820;23.490;2023-03-14T09:01:54;8.65;;;7.75;;
10365;SDS011;5229;41.820;23.490;2023-03-14T09:04:21;8.00;;;7.05;;
10365;SDS011;5229;41.820;23.490;2023-03-14T09:06:48;8.43;;;7.25;;
10365;SDS011;5229;41.820;23.490;2023-03-14T09:09:15;11.35;;;7.22;;
10365;SDS011;5229;41.820;23.490;2023-03-14T09:11:42;8.23;;;7.43;;
10365;SDS011;5229;41.820;23.490;2023-03-14T09:14:09;10.02;;;6.45;;
10365;SDS011;5229;41.820;23.490;2023-03-14T09:16:35;6.90;;;6.20;;
10365;SDS011;5229;41.820;23.490;2023-03-14T09:19:03;6.57;;;5.68;;
10365;SDS011;5229;41.820;23.490;2023-03-14T09:21:30;6.43;;;5.80;;
10365;SDS011;5229;41.820;23.490;2023-03-14T09:23:57;9.07;;;6.60;;
10365;SDS011;5229;41.820;23.490;2023-03-14T09:26:24;9.18;;;5.57;;
10365;SDS011;5229;41.820;23.490;2023-03-14T09:28:51;11.70;;;5.38;;
10365;SDS011;5229;41.820;23.490;2023-03-14T09:31:18;6.97;;;5.90;;
10365;SDS011;5229;41.820;23.490;2023-03-14T09:33:44;4.10;;;3.70;;
10365;SDS011;5229;41.820;23.490;2023-03-14T09:36:12;5.35;;;4.20;;
10365;SDS011;5229;41.820;23.490;2023-03-14T09:38:39;4.32;;;3.90;;
10365;SDS011;5229;41.820;23.490;2023-03-14T09:41:11;4.13;;;3.60;;
10365;SDS011;5229;41.820;23.490;2023-03-14T09:43:41;3.60;;;3.30;;
10365;SDS011;5229;41.820;23.490;2023-03-14T09:46:10;3.80;;;3.28;;
10365;SDS011;5229;41.820;23.490;2023-03-14T09:48:38;3.90;;;3.08;;
10365;SDS011;5229;41.820;23.490;2023-03-14T09:51:07;3.88;;;3.42;;
10365;SDS011;5229;41.820;23.490;2023-03-14T09:53:41;6.28;;;4.00;;
10365;SDS011;5229;41.820;23.490;2023-03-14T09:56:11;5.13;;;4.05;;
10365;SDS011;5229;41.820;23.490;2023-03-14T09:58:42;4.60;;;4.15;;
10365;SDS011;5229;41.820;23.490;2023-03-14T10:01:13;6.72;;;4.10;;
10365;SDS011;5229;41.820;23.490;2023-03-14T10:03:43;4.20;;;3.80;;
10365;SDS011;5229;41.820;23.490;2023-03-14T10:06:13;4.22;;;3.63;;
10365;SDS011;5229;41.820;23.490;2023-03-14T10:08:41;3.88;;;3.53;;
10365;SDS011;5229;41.820;23.490;2023-03-14T10:11:12;3.88;;;3.17;;
10365;SDS011;5229;41.820;23.490;2023-03-14T10:13:48;3.40;;;3.10;;
10365;SDS011;5229;41.820;23.490;2023-03-14T10:16:17;3.92;;;3.42;;
10365;SDS011;5229;41.820;23.490;2023-03-14T10:18:44;4.63;;;3.75;;
10365;SDS011;5229;41.820;23.490;2023-03-14T10:21:20;4.10;;;3.10;;
10365;SDS011;5229;41.820;23.490;2023-03-14T10:23:52;4.13;;;3.40;;
10365;SDS011;5229;41.820;23.490;2023-03-14T10:26:23;3.72;;;3.40;;
10365;SDS011;5229;41.820;23.490;2023-03-14T10:28:53;4.05;;;3.65;;
10365;SDS011;5229;41.820;23.490;2023-03-14T10:31:27;3.58;;;3.28;;
10365;SDS011;5229;41.820;23.490;2023-03-14T10:33:57;3.33;;;3.03;;
10365;SDS011;5229;41.820;23.490;2023-03-14T10:36:28;3.42;;;3.13;;
10365;SDS011;5229;41.820;23.490;2023-03-14T10:38:57;3.33;;;2.90;;
10365;SDS011;5229;41.820;23.490;2023-03-14T10:41:31;3.13;;;2.83;;
10365;SDS011;5229;41.820;23.490;2023-03-14T10:43:59;3.22;;;2.92;;
10365;SDS011;5229;41.820;23.490;2023-03-14T10:46:29;3.97;;;3.30;;
10365;SDS011;5229;41.820;23.490;2023-03-14T10:48:59;3.28;;;2.97;;
10365;SDS011;5229;41.820;23.490;2023-03-14T10:51:38;3.58;;;3.28;;
10365;SDS011;5229;41.820;23.490;2023-03-14T10:54:11;3.17;;;2.78;;
10365;SDS011;5229;41.820;23.490;2023-03-14T10:56:39;2.90;;;2.60;;
10365;SDS011;5229;41.820;23.490;2023-03-14T10:59:06;3.08;;;2.78;;
10365;SDS011;5229;41.820;23.490;2023-03-14T11:01:39;4.00;;;2.75;;
10365;SDS011;5229;41.820;23.490;2023-03-14T11:04:14;2.58;;;2.38;;
10365;SDS011;5229;41.820;23.490;2023-03-14T11:06:52;2.88;;;2.40;;
10365;SDS011;5229;41.820;23.490;2023-03-14T11:09:28;2.70;;;2.50;;
10365;SDS011;5229;41.820;23.490;2023-03-14T11:12:01;6.85;;;5.90;;
10365;SDS011;5229;41.820;23.490;2023-03-14T11:14:37;4.15;;;3.75;;
10365;SDS011;5229;41.820;23.490;2023-03-14T11:17:11;12.65;;;9.05;;
10365;SDS011;5229;41.820;23.490;2023-03-14T11:19:53;7.50;;;6.20;;
10365;SDS011;5229;41.820;23.490;2023-03-14T11:22:33;3.20;;;2.90;;
10365;SDS011;5229;41.820;23.490;2023-03-14T11:25:09;3.83;;;2.80;;
10365;SDS011;5229;41.820;23.490;2023-03-14T11:27:45;3.63;;;2.55;;
10365;SDS011;5229;41.820;23.490;2023-03-14T11:30:22;5.53;;;5.03;;
10365;SDS011;5229;41.820;23.490;2023-03-14T11:33:01;6.25;;;5.55;;
10365;SDS011;5229;41.820;23.490;2023-03-14T11:35:36;2.63;;;2.30;;
10365;SDS011;5229;41.820;23.490;2023-03-14T11:38:13;2.88;;;2.17;;
10365;SDS011;5229;41.820;23.490;2023-03-14T11:40:46;2.13;;;1.85;;
10365;SDS011;5229;41.820;23.490;2023-03-14T11:43:15;2.20;;;1.92;;
10365;SDS011;5229;41.820;23.490;2023-03-14T11:45:46;4.45;;;3.22;;
10365;SDS011;5229;41.820;23.490;2023-03-14T11:48:17;3.30;;;2.78;;
10365;SDS011;5229;41.820;23.490;2023-03-14T11:50:52;4.15;;;2.42;;
10365;SDS011;5229;41.820;23.490;2023-03-14T11:53:25;3.33;;;3.03;;
10365;SDS011;5229;41.820;23.490;2023-03-14T11:56:02;3.77;;;3.47;;
10365;SDS011;5229;41.820;23.490;2023-03-14T11:58:31;3.50;;;3.20;;
10365;SDS011;5229;41.820;23.490;2023-03-14T12:01:03;5.70;;;4.37;;
10365;SDS011;5229;41.820;23.490;2023-03-14T12:03:39;3.57;;;3.30;;
10365;SDS011;5229;41.820;23.490;2023-03-14T12:06:13;3.87;;;3.17;;
10365;SDS011;5229;41.820;23.490;2023-03-14T12:08:48;4.30;;;3.10;;
10365;SDS011;5229;41.820;23.490;2023-03-14T12:11:21;2.97;;;2.53;;
10365;SDS011;5229;41.820;23.490;2023-03-14T12:13:54;3.33;;;2.97;;
10365;SDS011;5229;41.820;23.490;2023-03-14T12:22:18;2.50;;;2.30;;
10365;SDS011;5229;41.820;23.490;2023-03-14T12:24:53;2.63;;;2.10;;
10365;SDS011;5229;41.820;23.490;2023-03-14T12:30:27;5.43;;;2.90;;
10365;SDS011;5229;41.820;23.490;2023-03-14T12:33:11;4.60;;;3.10;;
10365;SDS011;5229;41.820;23.490;2023-03-14T12:36:00;3.53;;;3.23;;
10365;SDS011;5229;41.820;23.490;2023-03-14T12:38:37;4.37;;;3.70;;
10365;SDS011;5229;41.820;23.490;2023-03-14T12:41:16;4.50;;;3.30;;
10365;SDS011;5229;41.820;23.490;2023-03-14T12:43:46;4.90;;;2.60;;
10365;SDS011;5229;41.820;23.490;2023-03-14T12:46:21;2.17;;;1.93;;
10365;SDS011;5229;41.820;23.490;2023-03-14T12:48:49;2.10;;;1.90;;
10365;SDS011;5229;41.820;23.490;2023-03-14T12:51:20;3.17;;;2.87;;
10365;SDS011;5229;41.820;23.490;2023-03-14T12:53:59;13.17;;;8.77;;
10365;SDS011;5229;41.820;23.490;2023-03-14T12:56:44;3.00;;;2.30;;
10365;SDS011;5229;41.820;23.490;2023-03-14T12:59:27;6.70;;;5.50;;
10365;SDS011;5229;41.820;23.490;2023-03-14T13:01:59;8.47;;;5.80;;
10365;SDS011;5229;41.820;23.490;2023-03-14T13:04:28;7.90;;;5.93;;
10365;SDS011;5229;41.820;23.490;2023-03-14T13:07:00;9.63;;;5.70;;
10365;SDS011;5229;41.820;23.490;2023-03-14T13:12:34;4.17;;;2.00;;
10365;SDS011;5229;41.820;23.490;2023-03-14T13:15:13;3.60;;;2.47;;
10365;SDS011;5229;41.820;23.490;2023-03-14T13:17:45;12.83;;;8.10;;
10365;SDS011;5229;41.820;23.490;2023-03-14T13:20:15;5.23;;;3.80;;
10365;SDS011;5229;41.820;23.490;2023-03-14T13:22:48;5.00;;;4.00;;
10365;SDS011;5229;41.820;23.490;2023-03-14T13:25:16;2.87;;;2.43;;
10365;SDS011;5229;41.820;23.490;2023-03-14T13:27:47;4.77;;;3.87;;
10365;SDS011;5229;41.820;23.490;2023-03-14T13:30:18;6.80;;;5.17;;
10365;SDS011;5229;41.820;23.490;2023-03-14T13:32:48;6.37;;;2.93;;
10365;SDS011;5229;41.820;23.490;2023-03-14T13:35:17;5.40;;;4.50;;
10365;SDS011;5229;41.820;23.490;2023-03-14T13:37:46;5.00;;;3.77;;
10365;SDS011;5229;41.820;23.490;2023-03-14T13:40:18;13.27;;;7.80;;
10365;SDS011;5229;41.820;23.490;2023-03-14T13:42:48;2.20;;;2.00;;
10365;SDS011;5229;41.820;23.490;2023-03-14T13:45:15;1.80;;;1.70;;
10365;SDS011;5229;41.820;23.490;2023-03-14T13:47:42;5.40;;;3.87;;
10365;SDS011;5229;41.820;23.490;2023-03-14T13:50:14;6.37;;;4.17;;
10365;SDS011;5229;41.820;23.490;2023-03-14T13:52:43;4.33;;;2.77;;
10365;SDS011;5229;41.820;23.490;2023-03-14T13:55:14;5.07;;;3.30;;
10365;SDS011;5229;41.820;23.490;2023-03-14T13:57:43;3.33;;;3.03;;
10365;SDS011;5229;41.820;23.490;2023-03-14T14:00:19;11.13;;;6.20;;
10365;SDS011;5229;41.820;23.490;2023-03-14T14:02:51;3.20;;;2.30;;
10365;SDS011;5229;41.820;23.490;2023-03-14T14:05:19;3.97;;;3.03;;
10365;SDS011;5229;41.820;23.490;2023-03-14T14:07:46;4.23;;;3.40;;
10365;SDS011;5229;41.820;23.490;2023-03-14T14:10:14;5.17;;;3.10;;
10365;SDS011;5229;41.820;23.490;2023-03-14T14:12:42;1.40;;;1.30;;
10365;SDS011;5229;41.820;23.490;2023-03-14T14:15:16;4.87;;;3.83;;
10365;SDS011;5229;41.820;23.490;2023-03-14T14:17:49;3.50;;;2.90;;
10365;SDS011;5229;41.820;23.490;2023-03-14T14:20:20;3.00;;;2.10;;
10365;SDS011;5229;41.820;23.490;2023-03-14T14:22:51;2.63;;;1.70;;
10365;SDS011;5229;41.820;23.490;2023-03-14T14:25:19;6.17;;;4.17;;
10365;SDS011;5229;41.820;23.490;2023-03-14T14:27:47;10.73;;;6.67;;
10365;SDS011;5229;41.820;23.490;2023-03-14T14:30:27;2.77;;;2.50;;
10365;SDS011;5229;41.820;23.490;2023-03-14T14:33:11;3.27;;;2.70;;
10365;SDS011;5229;41.820;23.490;2023-03-14T14:35:48;6.03;;;4.27;;
10365;SDS011;5229;41.820;23.490;2023-03-14T14:38:18;5.60;;;3.40;;
10365;SDS011;5229;41.820;23.490;2023-03-14T14:40:48;3.60;;;3.00;;
10365;SDS011;5229;41.820;23.490;2023-03-14T14:43:18;5.73;;;4.03;;
10365;SDS011;5229;41.820;23.490;2023-03-14T14:45:49;6.33;;;4.43;;
10365;SDS011;5229;41.820;23.490;2023-03-14T14:48:19;9.47;;;5.20;;
10365;SDS011;5229;41.820;23.490;2023-03-14T14:50:55;9.67;;;7.00;;
10365;SDS011;5229;41.820;23.490;2023-03-14T14:53:26;14.13;;;8.47;;
10365;SDS011;5229;41.820;23.490;2023-03-14T14:55:55;8.57;;;5.20;;
10365;SDS011;5229;41.820;23.490;2023-03-14T14:58:24;10.83;;;7.97;;
10365;SDS011;5229;41.820;23.490;2023-03-14T15:00:55;10.43;;;7.50;;
10365;SDS011;5229;41.820;23.490;2023-03-14T15:03:25;17.80;;;13.13;;
10365;SDS011;5229;41.820;23.490;2023-03-14T15:05:55;5.33;;;4.27;;
10365;SDS011;5229;41.820;23.490;2023-03-14T15:08:23;4.57;;;3.13;;
10365;SDS011;5229;41.820;23.490;2023-03-14T15:10:51;2.30;;;2.00;;
10365;SDS011;5229;41.820;23.490;2023-03-14T15:13:18;2.20;;;2.00;;
10365;SDS011;5229;41.820;23.490;2023-03-14T15:15:45;2.47;;;2.00;;
10365;SDS011;5229;41.820;23.490;2023-03-14T15:18:15;3.50;;;1.80;;